Merit, Texas
Current Conditions -  °F | °C
As of 6:35 PM on Sunday 21 Dec 2014 (Local Time) from KGVT Reporting Station
Overcast Overcast  
Wind Chill: 44°   Ceiling: 1700
Heat Index: 48°   Visibility: 7mi
Dew Point: 45°   Wind: 10mph
Humidity: 87%   Direction: 150°SSE
Pressure: 29.88"   Gusts: NA
Location:  33.22°N, 96.29°W
Report Text: KGVT 220035Z AUTO 15009KT 7SM BKN017 OVC024 09/07 A2988 RMK AO2
Loading
Personal Weather Stations






























Interactive Weather Map New forecast layout! Learn more

10-Day Weather Forecast

Advertisements
Track Severe Weather on mobile